Pagrindinis puslapis
METAR-TAF:

METAR-TAF

Oro uostai :

Nadžranas, Saudo Arabija

platuma: 17-37N, ilguma: 044-25E, Aukštis: 1212 m

Dabartinis oras

Ataskaita buvo paskelbta 48 minutes, ne 23:00 UTC
Ramus vėjas
Temperatūra 24°C
Drėgmė 24%
Slėgis 1017 hPa
Matomumas 10 km arba daugiau
nėra debesų žemiau 1500 m ir nėra kamuolinių lietaus debesų

METAR: OENG 072300Z 00000KT CAVOK 24/02 Q1017 NOSIG

Laikas: 02:48 (23:48 UTC)

Prognozė

Ataskaita buvo paskelbta 12 valandos ir 48 minutes, ne 11:00 UTC
Prognozė galioja nuo 07 metu 12 UTC su 08 metu 18 UTC
Vėjas 13 kt iš Rytų/Pietryčių
Matomumas: 8000 m
Laikinai
nuo 07 metu 12 UTC su 07 metu 20 UTC
Matomumas: 4000 m
dulkės
Tapsmas
nuo 07 metu 18 UTC su 07 metu 20 UTC
Vėjas 3 kt nuo kintamojo kryptimis
Tapsmas
nuo 08 metu 06 UTC su 08 metu 08 UTC
Vėjas 14 kt iš Pietryčių

TAF: OENG 071100Z 0712/0818 12013KT 8000 NSC TEMPO 0712/0720 4000 DU BECMG 0718/0720 VRB03KT BECMG 0806/0808 13014KT

Orai ataskaitas ir orų prognozės (METAR, TAF).

turimą stotys yra geltonos ir raudonos taškus žemėlapyje.

Perkelti pele per norėdami pamatyti stoties vardą.

Tada spustelėkite, norėdami matyti oro stebėjimo ir prognozės.

Norėdami pakeisti žemėlapį: spustelėkite ant žalios mygtukų su juodo kryžiaus žemyn,; žalią mygtuką su brūkšneliu, jei norite nutolinti; arba žalių rodyklių gretimoms žemėlapius.


METAR-TAF: